< < Back
Terminal Aerodrome Forecast


Current Version              Previous Versions:   1  2  3  4  5  6  7  8  9  

Terminal Aerodrome Forecast

429
FTUS44 KMRX 271130
TAFCHA
TAF
KCHA 271130Z 2712/2812 17003KT 6SM BR SCT009 BKN025
     FM271400 18005KT P6SM BKN035
     FM271800 20006KT P6SM VCTS SCT045CB BKN200
     FM272300 19004KT 4SM -TSRA BR BKN040CB
     FM280300 VRB03KT P6SM SCT050 BKN100
     FM280800 00000KT 5SM BR SCT015 SCT100=

Latest METAR

894
SAUS80 KWBC 272000 RRA
MTRCHA
METAR KCHA 271953Z VRB03KT 10SM SCT040 SCT050 SCT250 29/18 A3019 RMK AO2
SLP215 T02890178


USA.gov is the U.S. government's official web portal to all federal, state and local government web resources and services.